createdAt,value
2019-02-24T00:00:09.466Z,64.23
2019-02-24T00:01:09.454Z,63.95
2019-02-24T00:02:09.442Z,63.95
2019-02-24T00:03:09.430Z,64.97
2019-02-24T00:04:09.445Z,65.07
2019-02-24T00:05:09.415Z,64.89
2019-02-24T00:06:09.395Z,64.03
2019-02-24T00:07:09.381Z,64.86
2019-02-24T00:08:09.375Z,63.40
2019-02-24T00:09:09.387Z,63.32
2019-02-24T00:10:09.350Z,62.48
2019-02-24T00:11:09.864Z,62.69
2019-02-24T00:12:09.329Z,62.59
2019-02-24T00:13:09.322Z,62.87
2019-02-24T00:14:09.330Z,63.21
2019-02-24T00:15:09.307Z,63.01
2019-02-24T00:16:09.295Z,63.32
2019-02-24T00:17:09.273Z,64.13
2019-02-24T00:18:09.283Z,64.78
2019-02-24T00:19:09.267Z,64.44
2019-02-24T00:20:09.252Z,64.23
2019-02-24T00:21:09.231Z,63.81
2019-02-24T00:22:09.222Z,63.50
2019-02-24T00:23:09.211Z,63.81
2019-02-24T00:24:09.217Z,64.13
2019-02-24T00:25:09.183Z,63.92
2019-02-24T00:26:09.193Z,64.13
2019-02-24T00:27:09.165Z,64.54
2019-02-24T00:28:09.181Z,64.44
2019-02-24T00:29:09.167Z,64.23
2019-02-24T00:30:09.129Z,64.13
2019-02-24T00:31:09.119Z,64.13
2019-02-24T00:32:09.118Z,65.38
2019-02-24T00:33:09.105Z,65.46
2019-02-24T00:34:09.106Z,65.46
2019-02-24T00:35:09.075Z,66.08
2019-02-24T00:36:09.067Z,66.40
2019-02-24T00:37:09.051Z,67.24
2019-02-24T00:38:09.042Z,67.03
2019-02-24T00:39:09.064Z,67.03
2019-02-24T00:40:09.107Z,66.47
2019-02-24T00:41:09.015Z,65.36
2019-02-24T00:42:08.997Z,64.51
2019-02-24T00:43:09.003Z,63.13
2019-02-24T00:44:09.015Z,62.71
2019-02-24T00:45:08.970Z,61.56
2019-02-24T00:46:08.974Z,60.72
2019-02-24T00:47:08.943Z,60.52
2019-02-24T00:48:08.947Z,59.97
2019-02-24T00:49:08.945Z,59.34
2019-02-24T00:50:08.910Z,58.61
2019-02-24T00:51:08.904Z,58.81
2019-02-24T00:52:08.886Z,59.23
2019-02-24T00:53:08.878Z,59.76
2019-02-24T00:54:08.885Z,60.72
2019-02-24T00:55:08.858Z,59.78
2019-02-24T00:56:08.853Z,59.37
2019-02-24T00:57:08.840Z,59.05
2019-02-24T00:58:15.934Z,60.49
2019-02-24T00:59:08.828Z,60.70
2019-02-24T01:00:08.797Z,59.97
2019-02-24T01:01:08.791Z,59.44
2019-02-24T01:02:08.779Z,60.49
2019-02-24T01:03:08.773Z,59.78
2019-02-24T01:04:08.783Z,60.49
2019-02-24T01:05:08.751Z,59.99
2019-02-24T01:06:08.742Z,60.31
2019-02-24T01:07:08.738Z,60.93
2019-02-24T01:08:08.719Z,59.65
2019-02-24T01:09:08.703Z,59.97
2019-02-24T01:10:08.689Z,59.89
2019-02-24T01:11:08.688Z,60.49
2019-02-24T01:12:08.688Z,59.78
2019-02-24T01:13:08.663Z,59.76
2019-02-24T01:14:08.676Z,59.55
2019-02-24T01:15:08.636Z,59.97
2019-02-24T01:16:08.629Z,60.70
2019-02-24T01:17:08.621Z,60.38
2019-02-24T01:18:08.611Z,60.62
2019-02-24T01:19:08.624Z,61.95
2019-02-24T01:20:08.582Z,61.46
2019-02-24T01:21:08.567Z,61.46
2019-02-24T01:22:08.554Z,62.82
2019-02-24T01:23:08.549Z,63.02
2019-02-24T01:24:08.563Z,62.82
2019-02-24T01:25:08.527Z,63.26
2019-02-24T01:26:08.862Z,63.06
2019-02-24T01:27:08.533Z,63.57
2019-02-24T01:28:08.491Z,63.50
2019-02-24T01:29:08.505Z,63.29
2019-02-24T01:30:08.471Z,64.23
2019-02-24T01:31:08.468Z,64.54
2019-02-24T01:32:08.445Z,64.44
2019-02-24T01:33:08.449Z,64.03
2019-02-24T01:34:08.451Z,64.86
2019-02-24T01:35:08.411Z,65.38
2019-02-24T01:36:08.409Z,65.07
2019-02-24T01:37:08.393Z,65.07
2019-02-24T01:38:08.381Z,64.76
2019-02-24T01:39:08.379Z,65.49
2019-02-24T01:40:08.359Z,66.43
2019-02-24T01:41:08.349Z,66.01
2019-02-24T01:42:08.339Z,65.28
2019-02-24T01:43:08.331Z,65.59
2019-02-24T01:44:08.335Z,65.17
2019-02-24T01:45:08.299Z,65.70
2019-02-24T01:46:08.293Z,65.38
2019-02-24T01:47:08.289Z,65.17
2019-02-24T01:48:08.269Z,65.28
2019-02-24T01:49:08.291Z,65.91
2019-02-24T01:50:08.245Z,65.59
2019-02-24T01:51:08.239Z,65.28
2019-02-24T01:52:08.239Z,65.80
2019-02-24T01:53:08.217Z,66.01
2019-02-24T01:54:08.215Z,65.28
2019-02-24T01:55:08.215Z,65.07
2019-02-24T01:56:08.183Z,65.17
2019-02-24T01:57:08.179Z,65.07
2019-02-24T01:58:08.169Z,65.28
2019-02-24T01:59:08.156Z,64.76
2019-02-24T02:00:08.169Z,64.65
2019-02-24T02:01:08.124Z,64.97
2019-02-24T02:02:08.116Z,65.91
2019-02-24T02:03:08.103Z,65.49
2019-02-24T02:04:08.100Z,65.38
2019-02-24T02:05:08.099Z,65.07
2019-02-24T02:06:08.069Z,64.86
2019-02-24T02:07:08.059Z,64.86
2019-02-24T02:08:08.083Z,64.03
2019-02-24T02:09:08.036Z,64.86
2019-02-24T02:10:08.073Z,65.80
2019-02-24T02:11:08.023Z,65.59
2019-02-24T02:12:08.005Z,66.22
2019-02-24T02:13:07.991Z,64.65
2019-02-24T02:14:07.989Z,63.60
2019-02-24T02:15:07.997Z,64.05
2019-02-24T02:16:07.975Z,63.42
2019-02-24T02:17:07.951Z,64.05
2019-02-24T02:18:07.943Z,64.81
2019-02-24T02:19:07.922Z,65.10
2019-02-24T02:20:07.931Z,65.55
2019-02-24T02:21:07.913Z,64.68
2019-02-24T02:22:07.907Z,65.23
2019-02-24T02:23:07.881Z,65.62
2019-02-24T02:24:07.879Z,65.62
2019-02-24T02:25:07.887Z,65.76
2019-02-24T02:26:07.852Z,65.83
2019-02-24T02:27:07.835Z,65.41
2019-02-24T02:28:07.826Z,65.38
2019-02-24T02:29:07.831Z,65.10
2019-02-24T02:30:07.821Z,65.52
2019-02-24T02:31:07.797Z,65.31
2019-02-24T02:32:07.797Z,65.20
2019-02-24T02:33:07.782Z,64.47
2019-02-24T02:34:07.765Z,64.05
2019-02-24T02:35:07.786Z,64.78
2019-02-24T02:36:07.743Z,65.10
2019-02-24T02:37:07.727Z,65.62
2019-02-24T02:38:07.730Z,65.94
2019-02-24T02:39:07.714Z,65.49
2019-02-24T02:40:07.717Z,65.49
2019-02-24T02:41:07.693Z,65.49
2019-02-24T02:42:07.673Z,64.97
2019-02-24T02:43:07.665Z,65.17
2019-02-24T02:44:07.661Z,65.07
2019-02-24T02:45:07.671Z,64.86
2019-02-24T02:46:07.629Z,64.97
2019-02-24T02:47:07.621Z,65.17
2019-02-24T02:48:07.604Z,64.76
2019-02-24T02:49:07.606Z,64.13
2019-02-24T02:50:07.606Z,64.13
2019-02-24T02:51:07.574Z,64.23
2019-02-24T02:52:07.567Z,64.03
2019-02-24T02:53:07.553Z,66.01
2019-02-24T02:54:07.543Z,65.49
2019-02-24T02:55:07.548Z,64.97
2019-02-24T02:56:07.519Z,64.13
2019-02-24T02:57:07.505Z,64.47
2019-02-24T02:58:07.498Z,63.21
2019-02-24T02:59:07.490Z,63.01
2019-02-24T03:00:07.501Z,63.18
2019-02-24T03:01:07.463Z,63.40
2019-02-24T03:02:07.450Z,63.50
2019-02-24T03:03:07.440Z,63.08
2019-02-24T03:04:07.433Z,62.66
2019-02-24T03:05:07.448Z,63.50
2019-02-24T03:06:07.409Z,61.83
2019-02-24T03:07:07.402Z,61.30
2019-02-24T03:08:07.389Z,61.72
2019-02-24T03:09:07.378Z,61.75
2019-02-24T03:10:07.379Z,61.10
2019-02-24T03:11:07.348Z,62.35
2019-02-24T03:12:07.356Z,62.35
2019-02-24T03:13:07.331Z,62.24
2019-02-24T03:14:07.341Z,61.83
2019-02-24T03:15:07.335Z,62.77
2019-02-24T03:16:07.302Z,61.83
2019-02-24T03:17:07.342Z,61.51
2019-02-24T03:18:07.284Z,62.45
2019-02-24T03:19:07.263Z,62.66
2019-02-24T03:20:07.275Z,63.11
2019-02-24T03:21:07.241Z,62.48
2019-02-24T03:22:07.236Z,63.64
2019-02-24T03:23:07.233Z,62.90
2019-02-24T03:24:07.215Z,61.75
2019-02-24T03:25:07.227Z,61.22
2019-02-24T03:26:07.187Z,61.33
2019-02-24T03:27:07.181Z,62.80
2019-02-24T03:28:07.186Z,63.53
2019-02-24T03:29:07.153Z,63.87
2019-02-24T03:30:07.141Z,64.08
2019-02-24T03:31:07.153Z,64.78
2019-02-24T03:32:07.150Z,64.47
2019-02-24T03:33:07.120Z,64.29
2019-02-24T03:34:07.094Z,64.18
2019-02-24T03:35:07.098Z,64.26
2019-02-24T03:36:07.115Z,63.56
2019-02-24T03:37:07.071Z,63.04
2019-02-24T03:38:07.054Z,63.35
2019-02-24T03:39:07.050Z,63.77
2019-02-24T03:40:07.037Z,64.08
2019-02-24T03:41:07.041Z,63.04
2019-02-24T03:42:07.007Z,62.93
2019-02-24T03:43:07.030Z,63.45
2019-02-24T03:44:06.986Z,63.56
2019-02-24T03:45:06.985Z,63.45
2019-02-24T03:46:06.999Z,63.35
2019-02-24T03:47:06.953Z,63.04
2019-02-24T03:48:06.954Z,63.56
2019-02-24T03:49:06.931Z,62.93
2019-02-24T03:50:06.937Z,62.62
2019-02-24T03:51:06.937Z,63.56
2019-02-24T03:52:06.909Z,62.93
2019-02-24T03:53:06.885Z,63.77
2019-02-24T03:54:06.875Z,63.56
2019-02-24T03:55:06.861Z,64.08
2019-02-24T03:56:06.880Z,64.40
2019-02-24T03:57:06.865Z,64.61
2019-02-24T03:58:06.834Z,64.92
2019-02-24T03:59:14.653Z,65.03
2019-02-24T04:00:07.809Z,64.29
2019-02-24T04:01:06.817Z,64.61
2019-02-24T04:02:06.804Z,65.13
2019-02-24T04:03:06.784Z,64.81
2019-02-24T04:04:06.763Z,65.23
2019-02-24T04:05:06.753Z,65.13
2019-02-24T04:06:06.761Z,65.65
2019-02-24T04:07:06.731Z,65.65
2019-02-24T04:08:06.727Z,65.03
2019-02-24T04:09:06.716Z,64.92
2019-02-24T04:10:06.740Z,64.89
2019-02-24T04:11:07.211Z,64.68
2019-02-24T04:12:06.681Z,64.61
2019-02-24T04:13:06.667Z,64.29
2019-02-24T04:14:06.657Z,61.85
2019-02-24T04:15:06.672Z,62.72
2019-02-24T04:16:06.645Z,63.67
2019-02-24T04:17:06.622Z,61.99
2019-02-24T04:18:06.613Z,59.89
2019-02-24T04:19:06.615Z,60.00
2019-02-24T04:20:06.597Z,60.94
2019-02-24T04:21:06.613Z,61.15
2019-02-24T04:22:06.568Z,60.94
2019-02-24T04:23:06.561Z,59.69
2019-02-24T04:24:06.552Z,59.79
2019-02-24T04:25:06.533Z,59.69
2019-02-24T04:26:06.548Z,59.69
2019-02-24T04:27:06.511Z,59.69
2019-02-24T04:28:06.501Z,59.19
2019-02-24T04:29:06.486Z,59.47
2019-02-24T04:30:06.482Z,59.81
2019-02-24T04:31:06.489Z,59.61
2019-02-24T04:32:06.459Z,60.44
2019-02-24T04:33:06.444Z,60.34
2019-02-24T04:34:06.436Z,60.03
2019-02-24T04:35:06.424Z,59.61
2019-02-24T04:36:06.437Z,60.97
2019-02-24T04:37:06.409Z,59.69
2019-02-24T04:38:06.387Z,60.97
2019-02-24T04:39:06.375Z,60.65
2019-02-24T04:40:06.370Z,60.52
2019-02-24T04:41:06.493Z,59.79
2019-02-24T04:42:06.350Z,59.69
2019-02-24T04:43:06.342Z,60.00
2019-02-24T04:44:06.338Z,60.94
2019-02-24T04:45:06.311Z,60.00
2019-02-24T04:46:06.330Z,59.89
2019-02-24T04:47:06.288Z,59.50
2019-02-24T04:48:06.276Z,59.16
2019-02-24T04:49:06.277Z,60.10
2019-02-24T04:50:06.257Z,60.63
2019-02-24T04:51:06.268Z,60.73
2019-02-24T04:52:06.233Z,61.60
2019-02-24T04:53:06.228Z,60.52
2019-02-24T04:54:06.212Z,60.94
2019-02-24T04:55:06.309Z,61.05
2019-02-24T04:56:06.233Z,60.83
2019-02-24T04:57:06.186Z,61.46
2019-02-24T04:58:06.168Z,61.78
2019-02-24T04:59:06.157Z,61.25
2019-02-24T05:00:06.150Z,62.93
2019-02-24T05:01:06.149Z,61.22
2019-02-24T05:02:06.119Z,61.78
2019-02-24T05:03:06.114Z,61.65
2019-02-24T05:04:06.117Z,61.25
2019-02-24T05:05:06.100Z,61.75
2019-02-24T05:06:06.100Z,61.65
2019-02-24T05:07:06.069Z,61.75
2019-02-24T05:08:06.058Z,61.85
2019-02-24T05:09:06.043Z,61.75
2019-02-24T05:10:06.037Z,61.88
2019-02-24T05:11:06.043Z,62.30
2019-02-24T05:12:06.029Z,61.88
2019-02-24T05:13:06.006Z,61.65
2019-02-24T05:14:05.991Z,61.88
2019-02-24T05:15:05.993Z,62.38
2019-02-24T05:16:05.999Z,62.80
2019-02-24T05:17:05.967Z,63.11
2019-02-24T05:18:05.952Z,63.42
2019-02-24T05:19:05.937Z,63.42
2019-02-24T05:20:05.923Z,63.11
2019-02-24T05:21:05.940Z,63.11
2019-02-24T05:22:05.902Z,63.42
2019-02-24T05:23:05.907Z,63.21
2019-02-24T05:24:05.886Z,63.21
2019-02-24T05:25:05.867Z,62.90
2019-02-24T05:26:05.878Z,63.08
2019-02-24T05:27:05.859Z,62.80
2019-02-24T05:28:05.837Z,62.77
2019-02-24T05:29:05.841Z,62.77
2019-02-24T05:30:05.840Z,62.90
2019-02-24T05:31:05.800Z,62.69
2019-02-24T05:32:05.825Z,63.11
2019-02-24T05:33:05.787Z,63.11
2019-02-24T05:34:05.772Z,63.01
2019-02-24T05:35:05.769Z,62.90
2019-02-24T05:36:05.749Z,63.21
2019-02-24T05:37:05.747Z,63.64
2019-02-24T05:38:05.726Z,63.56
2019-02-24T05:39:05.713Z,63.42
2019-02-24T05:40:05.716Z,63.95
2019-02-24T05:41:05.688Z,63.21
2019-02-24T05:42:05.720Z,63.67
2019-02-24T05:43:05.679Z,63.98
2019-02-24T05:44:05.656Z,64.40
2019-02-24T05:45:05.653Z,64.81
2019-02-24T05:46:05.645Z,64.71
2019-02-24T05:47:05.644Z,64.50
2019-02-24T05:48:05.615Z,65.03
2019-02-24T05:49:05.605Z,65.34
2019-02-24T05:50:05.599Z,65.79
2019-02-24T05:51:05.589Z,65.76
2019-02-24T05:52:05.593Z,66.07
2019-02-24T05:53:05.565Z,66.20
2019-02-24T05:54:05.547Z,65.58
2019-02-24T05:55:05.534Z,65.68
2019-02-24T05:56:05.540Z,65.79
2019-02-24T05:57:05.545Z,65.79
2019-02-24T05:58:05.512Z,66.83
2019-02-24T05:59:05.492Z,66.52
2019-02-24T06:00:05.490Z,66.83
2019-02-24T06:01:05.475Z,66.70
2019-02-24T06:02:05.478Z,66.83
2019-02-24T06:03:05.452Z,66.83
2019-02-24T06:04:05.451Z,66.94
2019-02-24T06:05:05.432Z,66.94
2019-02-24T06:06:05.416Z,67.15
2019-02-24T06:07:05.427Z,67.43
2019-02-24T06:08:05.389Z,68.27
2019-02-24T06:09:05.389Z,67.99
2019-02-24T06:10:05.375Z,67.96
2019-02-24T06:11:05.365Z,66.80
2019-02-24T06:12:05.375Z,67.12
2019-02-24T06:13:05.339Z,67.75
2019-02-24T06:14:05.323Z,68.06
2019-02-24T06:15:05.327Z,66.60
2019-02-24T06:16:05.306Z,65.13
2019-02-24T06:17:05.320Z,64.78
2019-02-24T06:18:05.278Z,64.68
2019-02-24T06:19:05.273Z,64.26
2019-02-24T06:20:05.264Z,64.68
2019-02-24T06:21:05.257Z,63.32
2019-02-24T06:22:05.263Z,63.32
2019-02-24T06:23:05.231Z,62.38
2019-02-24T06:24:05.217Z,62.59
2019-02-24T06:25:05.214Z,62.38
2019-02-24T06:26:05.207Z,62.45
2019-02-24T06:27:05.204Z,62.35
2019-02-24T06:28:05.167Z,61.93
2019-02-24T06:29:05.161Z,61.20
2019-02-24T06:30:05.833Z,62.04
2019-02-24T06:31:05.140Z,62.24
2019-02-24T06:32:05.142Z,61.83
2019-02-24T06:33:05.117Z,62.04
2019-02-24T06:34:05.104Z,61.41
2019-02-24T06:35:05.096Z,62.24
2019-02-24T06:36:05.084Z,62.35
2019-02-24T06:37:05.104Z,62.56
2019-02-24T06:38:05.062Z,62.14
2019-02-24T06:39:05.052Z,62.14
2019-02-24T06:40:05.041Z,62.45
2019-02-24T06:41:05.870Z,62.43
2019-02-24T06:42:05.042Z,62.35
2019-02-24T06:43:05.005Z,62.14
2019-02-24T06:44:04.994Z,61.90
2019-02-24T06:45:04.990Z,62.43
2019-02-24T06:46:04.971Z,62.11
2019-02-24T06:47:04.983Z,61.90
2019-02-24T06:48:04.968Z,61.93
2019-02-24T06:49:04.942Z,61.69
2019-02-24T06:50:04.939Z,62.22
2019-02-24T06:51:04.920Z,61.59
2019-02-24T06:52:04.929Z,61.17
2019-02-24T06:53:04.918Z,60.86
2019-02-24T06:54:04.891Z,60.65
2019-02-24T06:55:04.875Z,61.17
2019-02-24T06:56:04.877Z,60.10
2019-02-24T06:57:04.884Z,59.47
2019-02-24T06:58:04.838Z,59.99
2019-02-24T06:59:04.829Z,59.78
2019-02-24T07:00:13.587Z,59.78
2019-02-24T07:01:05.805Z,59.89
2019-02-24T07:02:04.809Z,59.26
2019-02-24T07:03:04.785Z,58.64
2019-02-24T07:04:04.774Z,58.95
2019-02-24T07:05:04.765Z,59.37
2019-02-24T07:06:04.753Z,58.95
2019-02-24T07:07:04.781Z,58.84
2019-02-24T07:08:04.725Z,59.34
2019-02-24T07:09:04.726Z,59.23
2019-02-24T07:10:04.705Z,59.34
2019-02-24T07:11:04.705Z,59.34
2019-02-24T07:12:04.684Z,58.81
2019-02-24T07:13:04.704Z,58.81
2019-02-24T07:14:04.681Z,58.50
2019-02-24T07:15:04.651Z,59.03
2019-02-24T07:16:04.637Z,59.23
2019-02-24T07:17:04.634Z,59.34
2019-02-24T07:18:04.726Z,59.10
2019-02-24T07:19:04.625Z,58.69
2019-02-24T07:20:04.599Z,57.85
2019-02-24T07:21:04.587Z,57.22
2019-02-24T07:22:04.571Z,57.22
2019-02-24T07:23:04.585Z,57.33
2019-02-24T07:24:04.556Z,56.41
2019-02-24T07:25:04.548Z,56.21
2019-02-24T07:26:04.533Z,55.16
2019-02-24T07:27:04.521Z,57.35
2019-02-24T07:28:04.535Z,56.86
2019-02-24T07:29:04.497Z,56.41
2019-02-24T07:30:04.486Z,57.07
2019-02-24T07:31:04.469Z,57.25
2019-02-24T07:32:04.464Z,56.65
2019-02-24T07:33:04.474Z,56.96
2019-02-24T07:34:04.446Z,56.73
2019-02-24T07:35:04.443Z,57.46
2019-02-24T07:36:04.422Z,57.15
2019-02-24T07:37:12.558Z,57.98
2019-02-24T07:38:05.430Z,57.56
2019-02-24T07:39:04.383Z,57.12
2019-02-24T07:40:04.380Z,57.22
2019-02-24T07:41:04.365Z,57.43
2019-02-24T07:42:04.358Z,57.12
2019-02-24T07:43:04.368Z,57.54
2019-02-24T07:44:04.333Z,57.01
2019-02-24T07:45:04.324Z,57.43
2019-02-24T07:46:04.309Z,56.57
2019-02-24T07:47:04.305Z,55.94
2019-02-24T07:48:04.303Z,56.68
2019-02-24T07:49:04.274Z,56.68
2019-02-24T07:50:04.263Z,56.99
2019-02-24T07:51:04.253Z,56.99
2019-02-24T07:52:04.240Z,56.44
2019-02-24T07:53:04.253Z,55.94
2019-02-24T07:54:04.226Z,55.94
2019-02-24T07:55:04.213Z,55.92
2019-02-24T07:56:04.201Z,55.82
2019-02-24T07:57:04.188Z,56.44
2019-02-24T07:58:04.211Z,56.44
2019-02-24T07:59:04.174Z,56.44
2019-02-24T08:00:04.165Z,56.54
2019-02-24T08:01:04.142Z,56.86
2019-02-24T08:02:04.125Z,56.44
2019-02-24T08:03:04.145Z,56.54
2019-02-24T08:04:04.119Z,56.86
2019-02-24T08:05:04.111Z,56.86
2019-02-24T08:06:04.093Z,56.83
2019-02-24T08:07:04.072Z,56.54
2019-02-24T08:08:04.084Z,56.93
2019-02-24T08:09:04.073Z,56.73
2019-02-24T08:10:04.045Z,56.93
2019-02-24T08:11:04.035Z,56.52
2019-02-24T08:12:04.018Z,57.35
2019-02-24T08:13:04.041Z,56.52
2019-02-24T08:14:04.005Z,57.15
2019-02-24T08:15:04.045Z,57.32
2019-02-24T08:16:03.989Z,57.22
2019-02-24T08:17:03.978Z,56.18
2019-02-24T08:18:03.986Z,56.60
2019-02-24T08:19:03.941Z,57.22
2019-02-24T08:20:03.962Z,57.12
2019-02-24T08:21:04.002Z,56.91
2019-02-24T08:22:03.915Z,57.12
2019-02-24T08:23:03.916Z,56.88
2019-02-24T08:24:03.915Z,56.68
2019-02-24T08:25:03.882Z,55.94
2019-02-24T08:26:03.869Z,56.05
2019-02-24T08:27:03.850Z,56.88
2019-02-24T08:28:03.840Z,56.37
2019-02-24T08:29:03.861Z,56.47
2019-02-24T08:30:03.818Z,56.57
2019-02-24T08:31:03.807Z,56.15
2019-02-24T08:32:03.804Z,56.57
2019-02-24T08:33:03.797Z,56.13
2019-02-24T08:34:03.791Z,56.23
2019-02-24T08:35:03.765Z,54.57
2019-02-24T08:36:03.750Z,55.19
2019-02-24T08:37:03.741Z,54.96
2019-02-24T08:38:03.735Z,55.27
2019-02-24T08:39:03.747Z,54.64
2019-02-24T08:40:03.718Z,55.16
2019-02-24T08:41:03.691Z,54.85
2019-02-24T08:42:03.695Z,54.54
2019-02-24T08:43:03.672Z,54.44
2019-02-24T08:44:03.690Z,54.57
2019-02-24T08:45:03.659Z,55.40
2019-02-24T08:46:03.638Z,55.19
2019-02-24T08:47:03.630Z,55.40
2019-02-24T08:48:03.617Z,55.22
2019-02-24T08:49:03.629Z,54.91
2019-02-24T08:50:03.608Z,54.57
2019-02-24T08:51:03.603Z,56.26
2019-02-24T08:52:03.577Z,56.23
2019-02-24T08:53:03.564Z,55.82
2019-02-24T08:54:03.582Z,54.36
2019-02-24T08:55:03.545Z,55.19
2019-02-24T08:56:03.534Z,55.51
2019-02-24T08:57:03.525Z,55.30
2019-02-24T08:58:03.511Z,55.19
2019-02-24T08:59:03.512Z,55.06
2019-02-24T09:00:03.492Z,55.06
2019-02-24T09:01:03.477Z,55.77
2019-02-24T09:02:03.467Z,54.83
2019-02-24T09:03:03.469Z,54.83
2019-02-24T09:04:03.464Z,54.83
2019-02-24T09:05:03.428Z,54.28
2019-02-24T09:06:03.429Z,53.79
2019-02-24T09:07:03.408Z,54.41
2019-02-24T09:08:03.402Z,53.79
2019-02-24T09:09:03.401Z,52.83
2019-02-24T09:10:03.374Z,53.38
2019-02-24T09:11:03.363Z,53.69
2019-02-24T09:12:03.351Z,53.97
2019-02-24T09:13:03.347Z,53.56
2019-02-24T09:14:03.349Z,52.62
2019-02-24T09:15:03.316Z,52.83
2019-02-24T09:16:03.309Z,53.43
2019-02-24T09:17:03.298Z,53.53
2019-02-24T09:18:03.289Z,53.22
2019-02-24T09:19:03.309Z,53.20
2019-02-24T09:20:03.265Z,52.98
2019-02-24T09:21:03.258Z,51.74
2019-02-24T09:22:03.246Z,52.36
2019-02-24T09:23:03.235Z,52.03
2019-02-24T09:24:03.237Z,51.40
2019-02-24T09:25:03.521Z,51.30
2019-02-24T09:26:03.208Z,51.28
2019-02-24T09:27:03.181Z,51.59
2019-02-24T09:28:03.178Z,50.96
2019-02-24T09:29:03.205Z,50.34
2019-02-24T09:30:03.161Z,50.53
2019-02-24T09:31:03.147Z,50.84
2019-02-24T09:32:03.598Z,50.03
2019-02-24T09:33:03.120Z,50.32
2019-02-24T09:34:03.116Z,50.03
2019-02-24T09:35:03.111Z,50.43
2019-02-24T09:36:03.092Z,50.22
2019-02-24T09:37:03.080Z,50.01
2019-02-24T09:38:03.062Z,49.39
2019-02-24T09:39:03.057Z,49.29
2019-02-24T09:40:03.065Z,49.49
2019-02-24T09:41:03.032Z,49.60
2019-02-24T09:42:03.037Z,48.02
2019-02-24T09:43:03.011Z,48.95
2019-02-24T09:44:03.093Z,48.74
2019-02-24T09:45:03.119Z,49.57
2019-02-24T09:46:02.981Z,49.99
2019-02-24T09:47:02.986Z,49.55
2019-02-24T09:48:02.953Z,49.34
2019-02-24T09:49:02.942Z,48.28
2019-02-24T09:50:02.952Z,49.51
2019-02-24T09:51:02.914Z,49.51
2019-02-24T09:52:02.913Z,48.75
2019-02-24T09:53:02.889Z,47.10
2019-02-24T09:54:02.887Z,48.22
2019-02-24T09:55:02.894Z,47.49
2019-02-24T09:56:02.878Z,47.16
2019-02-24T09:57:02.851Z,45.26
2019-02-24T09:58:02.841Z,43.25
2019-02-24T09:59:02.825Z,42.49
2019-02-24T10:00:02.854Z,41.54
2019-02-24T10:01:10.166Z,41.01
2019-02-24T10:02:03.797Z,41.30
2019-02-24T10:03:02.788Z,39.92
2019-02-24T10:04:02.783Z,39.80
2019-02-24T10:05:02.795Z,37.42
2019-02-24T10:06:02.760Z,37.09
2019-02-24T10:07:02.741Z,37.06
2019-02-24T10:08:02.724Z,36.22
2019-02-24T10:09:02.715Z,35.49
2019-02-24T10:10:02.734Z,35.76
2019-02-24T10:11:02.698Z,33.78
2019-02-24T10:12:02.684Z,32.97
2019-02-24T10:13:02.667Z,32.33
2019-02-24T10:14:02.662Z,31.31
2019-02-24T10:15:02.679Z,32.21
2019-02-24T10:16:02.636Z,32.29
2019-02-24T10:17:02.639Z,33.18
2019-02-24T10:18:02.626Z,32.14
2019-02-24T10:19:02.612Z,31.41
2019-02-24T10:20:02.608Z,30.48
2019-02-24T10:21:02.582Z,30.96
2019-02-24T10:22:02.570Z,29.02
2019-02-24T10:23:02.572Z,28.81
2019-02-24T10:24:02.545Z,28.39
2019-02-24T10:25:02.574Z,28.27
2019-02-24T10:26:02.558Z,27.56
2019-02-24T10:27:02.514Z,27.36
2019-02-24T10:28:02.494Z,27.45
2019-02-24T10:29:02.496Z,27.03
2019-02-24T10:30:02.504Z,25.18
2019-02-24T10:31:02.471Z,25.78
2019-02-24T10:32:02.471Z,23.94
2019-02-24T10:33:02.452Z,23.74
2019-02-24T10:34:02.434Z,24.44
2019-02-24T10:35:02.448Z,23.83
2019-02-24T10:36:02.411Z,23.64
2019-02-24T10:37:02.409Z,24.34
2019-02-24T10:38:02.387Z,24.52
2019-02-24T10:39:02.379Z,22.18
2019-02-24T10:40:02.389Z,23.08
2019-02-24T10:41:02.372Z,22.36
2019-02-24T10:42:02.337Z,21.53
2019-02-24T10:43:02.327Z,21.22
2019-02-24T10:44:02.331Z,21.20
2019-02-24T10:45:02.346Z,21.30
2019-02-24T10:46:02.310Z,21.62
2019-02-24T10:47:02.497Z,21.33
2019-02-24T10:48:02.293Z,21.72
2019-02-24T10:49:03.695Z,21.32
2019-02-24T10:50:02.248Z,19.70
2019-02-24T10:51:02.282Z,20.10
2019-02-24T10:52:02.232Z,19.71
2019-02-24T10:53:02.265Z,20.42
2019-02-24T10:54:02.209Z,20.90
2019-02-24T10:55:02.201Z,21.28
2019-02-24T10:56:02.223Z,20.65
2019-02-24T10:57:02.183Z,19.62
2019-02-24T10:58:02.162Z,19.32
2019-02-24T10:59:02.146Z,19.40
2019-02-24T11:00:02.156Z,17.67
2019-02-24T11:01:02.143Z,17.25
2019-02-24T11:02:02.115Z,17.44
2019-02-24T11:03:02.133Z,15.24
2019-02-24T11:04:02.093Z,15.78
2019-02-24T11:05:02.084Z,17.11
2019-02-24T11:06:02.096Z,17.33
2019-02-24T11:07:02.066Z,17.95
2019-02-24T11:08:02.045Z,18.76
2019-02-24T11:09:02.044Z,18.76
2019-02-24T11:10:03.850Z,18.65
2019-02-24T11:11:02.033Z,18.54
2019-02-24T11:12:02.003Z,17.40
2019-02-24T11:13:02.085Z,16.97
2019-02-24T11:14:01.993Z,17.56
2019-02-24T11:15:01.999Z,16.24
2019-02-24T11:16:01.997Z,15.52
2019-02-24T11:17:01.965Z,14.70
2019-02-24T11:18:01.944Z,14.50
2019-02-24T11:19:01.928Z,14.19
2019-02-24T11:20:01.922Z,13.48
2019-02-24T11:21:01.927Z,13.37
2019-02-24T11:22:02.644Z,13.26
2019-02-24T11:23:01.901Z,11.57
2019-02-24T11:24:01.879Z,12.07
2019-02-24T11:25:01.866Z,11.98
2019-02-24T11:26:01.884Z,11.97
2019-02-24T11:27:01.835Z,11.77
2019-02-24T11:28:01.825Z,11.88
2019-02-24T11:29:01.827Z,11.99
2019-02-24T11:30:01.811Z,12.08
2019-02-24T11:31:01.822Z,11.77
2019-02-24T11:32:01.786Z,12.65
2019-02-24T11:33:01.772Z,11.44
2019-02-24T11:34:01.761Z,9.56
2019-02-24T11:35:01.751Z,10.66
2019-02-24T11:36:01.753Z,10.47
2019-02-24T11:37:01.743Z,10.88
2019-02-24T11:38:01.733Z,10.97
2019-02-24T11:39:01.710Z,11.45
2019-02-24T11:40:01.696Z,10.85
2019-02-24T11:41:01.699Z,10.94
2019-02-24T11:42:01.684Z,11.83
2019-02-24T11:43:01.664Z,10.33
2019-02-24T11:44:01.656Z,10.72
2019-02-24T11:45:01.644Z,10.41
2019-02-24T11:46:01.649Z,10.11
2019-02-24T11:47:01.621Z,9.21
2019-02-24T11:48:01.611Z,9.01
2019-02-24T11:49:01.599Z,10.10
2019-02-24T11:50:01.599Z,8.31
2019-02-24T11:51:01.604Z,8.52
2019-02-24T11:52:03.931Z,8.43
2019-02-24T11:53:01.557Z,9.52
2019-02-24T11:54:01.545Z,9.03
2019-02-24T11:55:01.545Z,10.63
2019-02-24T11:56:01.555Z,10.03
2019-02-24T11:57:01.528Z,9.73
2019-02-24T11:58:01.508Z,8.74
2019-02-24T11:59:01.499Z,8.14
2019-02-24T12:00:01.484Z,8.44
2019-02-24T12:01:01.489Z,7.94
2019-02-24T12:02:01.464Z,7.93
2019-02-24T12:03:01.449Z,7.93
2019-02-24T12:04:01.437Z,8.14
2019-02-24T12:05:01.427Z,7.84
2019-02-24T12:06:01.440Z,9.71
2019-02-24T12:07:01.414Z,7.54
2019-02-24T12:08:01.410Z,7.56
2019-02-24T12:09:05.165Z,10.44
2019-02-24T12:10:01.377Z,8.15
2019-02-24T12:11:01.394Z,10.03
2019-02-24T12:12:01.355Z,8.53
2019-02-24T12:13:01.352Z,8.92
2019-02-24T12:14:01.351Z,6.73
2019-02-24T12:15:01.326Z,6.73
2019-02-24T12:16:01.329Z,6.64
2019-02-24T12:17:01.310Z,7.45
2019-02-24T12:18:01.293Z,7.05
2019-02-24T12:19:01.284Z,7.45
2019-02-24T12:20:01.281Z,7.46
2019-02-24T12:21:01.277Z,7.66
2019-02-24T12:22:01.247Z,8.26
2019-02-24T12:23:01.240Z,7.86
2019-02-24T12:24:01.276Z,7.97
2019-02-24T12:25:01.226Z,8.15
2019-02-24T12:26:01.228Z,7.97
2019-02-24T12:27:01.202Z,8.76
2019-02-24T12:28:01.196Z,9.17
2019-02-24T12:29:01.176Z,9.67
2019-02-24T12:30:01.163Z,8.48
2019-02-24T12:31:01.187Z,9.28
2019-02-24T12:32:01.145Z,9.39
2019-02-24T12:33:01.130Z,8.61
2019-02-24T12:34:01.137Z,9.33
2019-02-24T12:35:01.112Z,10.13
2019-02-24T12:36:01.097Z,9.83
2019-02-24T12:37:01.124Z,9.81
2019-02-24T12:38:01.082Z,9.70
2019-02-24T12:39:01.069Z,9.80
2019-02-24T12:40:01.055Z,9.41
2019-02-24T12:41:01.058Z,8.20
2019-02-24T12:42:01.054Z,9.39
2019-02-24T12:43:01.035Z,9.98
2019-02-24T12:44:01.005Z,8.47
2019-02-24T12:45:01.004Z,7.97
2019-02-24T12:46:00.984Z,7.35
2019-02-24T12:47:00.999Z,7.75
2019-02-24T12:48:00.969Z,7.34
2019-02-24T12:49:00.961Z,7.03
2019-02-24T12:50:03.479Z,6.43
2019-02-24T12:51:00.938Z,6.63
2019-02-24T12:52:00.953Z,6.35
2019-02-24T12:53:00.913Z,7.16
2019-02-24T12:54:00.912Z,8.06